• Join FlightAware (Why Join?)
  • Login
  • US Flag 
Gobble Gobble! 
12:37AM EST


 

Airport Tracker/Info


-or-


 

Live Flight TrackerFlight Track Log ✈ EGF3796 ✈ 25-Apr-2013 ✈ KORD - KXNA

Flight Track Log - Related Links

Times and Time Zones

All times are in EDT time to prevent confusion due to time zone crossing. See the EGF3796 flight status page for this flight to view local times or setup timezone preferences in your user account.

Time Position Orientation Groundspeed Altitude Reporting Facility
EDT Latitude Longitude Course Direction KTS MPH feet Rate Location/Type
09:30PM 41.9500 -87.9000 194° South 166 191 1,900  Level Chicago TRACON
09:31PM 41.9000 -87.9500 217° Southwest 241 277 4,300 3,000 Climbing Chicago TRACON
09:32PM 41.6905 -88.0331 203° Southwest  Level FlightAware Approximate
09:32PM 41.8139 -88.0339 216° Southwest 263 303 9,200  Level Chicago Center
09:33PM 41.5964 -88.0848 197° South  Level FlightAware Approximate
09:33PM 41.7325 -88.0628 195° South 297 342 12,400  Level Chicago Center
09:34PM 41.4989 -88.1238 197° South  Level FlightAware Approximate
09:34PM 41.6297 -88.1011 196° South 364 419 13,500  Level Chicago Center
09:35PM 41.4010 -88.1608 194° South  Level FlightAware Approximate
09:35PM 41.5314 -88.1356 195° South 396 456 15,700  Level Chicago Center
09:36PM 41.4042 -88.1819 195° South 411 473 18,200 2,220 Climbing Chicago Center
09:37PM 41.2964 -88.2289 198° South 417 480 20,400 1,800 Climbing Chicago Center
09:38PM 41.1853 -88.2800 199° South 425 489 22,000 1,500 Climbing Chicago Center
09:39PM 41.0703 -88.3314 199° South 437 503 23,500 1,440 Climbing Chicago Center
09:40PM 40.9525 -88.3842 199° South 446 513 25,000 1,440 Climbing Chicago Center
09:41PM 40.8067 -88.4481 198° South 459 528 26,500 1,440 Climbing Chicago Center
09:42PM 40.6806 -88.4914 195° South 475 547 28,000 1,620 Climbing Chicago Center
09:43PM 40.5517 -88.5208 190° South 473 544 29,900 1,560 Climbing Chicago Center
09:44PM 40.4325 -88.5558 193° South 462 532 31,300 960 Climbing Chicago Center
09:45PM 40.3167 -88.6228 204° Southwest 454 522 32,000 600 Climbing Chicago Center
09:47PM 40.2225 -88.7336 222° Southwest 459 528 32,600 900 Climbing Chicago Center
09:48PM 40.1425 -88.8500 228° Southwest 441 507 33,900 1,380 Climbing Chicago Center
09:48PM 40.0831 -88.9394 229° Southwest 422 486 35,100 1,500 Climbing Kansas City Center
09:49PM 40.0083 -89.0489 228° Southwest 409 471 36,600 1,200 Climbing Kansas City Center
09:50PM 39.9350 -89.1550 228° Southwest 398 458 37,600 660 Climbing Kansas City Center
09:51PM 39.8611 -89.2625 228° Southwest 397 457 38,000 180 Climbing Kansas City Center
09:52PM 39.7697 -89.3961 228° Southwest 407 468 38,000  Level Kansas City Center
09:53PM 39.6914 -89.5081 228° Southwest 412 474 38,000  Level Kansas City Center
09:54PM 39.6161 -89.6189 229° Southwest 412 474 38,000  Level Kansas City Center
09:55PM 39.5400 -89.7289 228° Southwest 411 473 38,000  Level Kansas City Center
09:57PM 39.4625 -89.8389 228° Southwest 414 476 38,000  Level Kansas City Center
09:58PM 39.3853 -89.9492 228° Southwest 414 476 38,000  Level Kansas City Center
09:59PM 39.3083 -90.0586 228° Southwest 413 475 38,000  Level Kansas City Center
10:00PM 39.2328 -90.1675 228° Southwest 410 472 38,000  Level Kansas City Center
10:01PM 39.1406 -90.2967 227° Southwest 410 472 38,000  Level Kansas City Center
10:02PM 39.0650 -90.4039 228° Southwest 409 471 38,000  Level Kansas City Center
10:03PM 38.9886 -90.5117 228° Southwest 410 472 38,000  Level Kansas City Center
10:04PM 38.9131 -90.6156 227° Southwest 401 461 38,000  Level Kansas City Center
10:05PM 38.8356 -90.7236 227° Southwest 420 483 38,000  Level Kansas City Center
10:06PM 38.7603 -90.8303 228° Southwest 415 478 38,000  Level Kansas City Center
10:07PM 38.6678 -90.9567 227° Southwest 412 474 38,000  Level Kansas City Center
10:08PM 38.5900 -91.0644 227° Southwest 416 479 38,000  Level Kansas City Center
10:09PM 38.5131 -91.1683 227° Southwest 409 471 38,000  Level Kansas City Center
10:10PM 38.4353 -91.2764 227° Southwest 414 476 38,000  Level Kansas City Center
10:11PM 38.3536 -91.3858 226° Southwest 400 460 38,000  Level Kansas City Center
10:12PM 38.2764 -91.4878 226° Southwest 398 458 38,000  Level Kansas City Center
10:13PM 38.2014 -91.5894 227° Southwest 394 453 38,000  Level Kansas City Center
10:14PM 38.1275 -91.6889 227° Southwest 387 445 38,000  Level Kansas City Center
10:15PM 38.0531 -91.7892 227° Southwest 385 443 38,000  Level Kansas City Center
10:16PM 37.9806 -91.8864 227° Southwest 373 429 38,000  Level Kansas City Center
10:17PM 37.9078 -91.9856 227° Southwest 377 434 38,000  Level Kansas City Center
10:18PM 37.8311 -92.0875 226° Southwest 377 434 38,000  Level Kansas City Center
10:19PM 37.7578 -92.1833 226° Southwest 378 435 38,000 -480 Level Kansas City Center
10:20PM 37.6844 -92.2814 227° Southwest 382 440 37,000 -1,440 Descending Kansas City Center
10:21PM 37.5947 -92.4011 227° Southwest 387 445 35,100 -1,560 Descending Kansas City Center
10:22PM 37.5156 -92.5036 226° Southwest 394 453 33,900 -1,800 Descending Kansas City Center
10:23PM 37.4350 -92.6117 227° Southwest 407 468 31,500 -2,700 Descending Kansas City Center
10:24PM 37.3556 -92.7153 226° Southwest 411 473 28,400 -3,000 Descending Kansas City Center
10:25PM 37.2806 -92.8153 227° Southwest 399 459 25,400 -2,880 Descending Kansas City Center
10:26PM 37.2019 -92.9139 225° Southwest 396 456 22,600 -2,280 Descending Kansas City Center
10:27PM 37.1242 -93.0139 226° Southwest 399 459 20,800 -1,680 Descending Kansas City Center
10:28PM 37.0478 -93.1131 226° Southwest 394 453 19,200 -1,440 Descending Kansas City Center
10:29PM 36.9689 -93.2131 225° Southwest 401 461 17,900 -1,440 Descending Kansas City Center
10:30PM 36.8936 -93.3117 226° Southwest 397 457 16,300 -1,620 Descending Kansas City Center
10:31PM 36.8175 -93.4058 225° Southwest 390 449 14,700 -1,440 Descending Kansas City Center
10:32PM 36.7442 -93.4972 225° Southwest 381 438 13,500 -1,320 Descending Kansas City Center
10:33PM 36.6586 -93.6078 226° Southwest 373 429 12,000 -1,380 Descending Kansas City Center
10:34PM 36.5972 -93.6894 227° Southwest 356 410 10,700 -1,500 Descending Kansas City Center
10:35PM 36.5458 -93.7489 223° Southwest 302 348 9,000 -1,380 Descending Kansas City Center
10:36PM 36.5042 -93.8164 232° Southwest 278 320 8,000 -540 Descending Kansas City Center
10:37PM 36.5094 -93.9106 274° West 277 319 8,000  Level Kansas City Center
10:38PM 36.5167 -94.0017 276° West 270 311 8,000 -180 Level Kansas City Center
10:40PM 36.5203 -94.0928 273° West 266 306 7,700 -840 Descending Kansas City Center
10:41PM 36.5100 -94.1794 262° West 256 295 6,400 -1,260 Descending Kansas City Center
10:42PM 36.4919 -94.2750 257° West 246 283 5,200 -960 Descending Kansas City Center
10:43PM 36.4578 -94.3303 232° Southwest 215 247 4,500 -720 Descending Kansas City Center